< < Back
Terminal Aerodrome Forecast


Current Version              Previous Versions:   1  2  3  4  5  6  7  8  9  

Terminal Aerodrome Forecast

395
FTUS42 KFFC 201733
TAFMCN
TAF
KMCN 201733Z 2018/2118 09005KT 5SM BR OVC015
     FM210500 05003KT 2SM BR OVC015
     FM210900 06003KT 1SM BR OVC004
     FM211700 06006KT 4SM BR OVC015=



Latest METAR

600
SAUS80 KWBC 201800 RRB
MTRMCN
METAR KMCN 201753Z 00000KT 4SM BR BKN008 BKN024 OVC031 11/10 A3017 RMK
AO2 SLP215 60007 T01060100 10111 20078 58012


USA.gov is the U.S. government's official web portal to all federal, state and local government web resources and services.